createdAt,value
2022-12-08T00:02:32.405Z,18.50
2022-12-08T00:05:24.108Z,17.40
2022-12-08T00:08:14.767Z,17.70
2022-12-08T00:10:51.605Z,17.60
2022-12-08T00:13:25.397Z,16.10
2022-12-08T00:16:03.109Z,17.40
2022-12-08T00:18:39.050Z,17.00
2022-12-08T00:21:12.175Z,17.30
2022-12-08T00:23:45.420Z,16.70
2022-12-08T00:26:18.259Z,17.40
2022-12-08T00:28:51.619Z,17.30
2022-12-08T00:31:24.610Z,17.30
2022-12-08T00:33:58.937Z,17.00
2022-12-08T00:36:32.365Z,17.00
2022-12-08T00:39:05.870Z,17.40
2022-12-08T00:41:56.561Z,18.40
2022-12-08T00:44:30.663Z,17.50
2022-12-08T00:47:03.866Z,17.40
2022-12-08T00:49:37.617Z,17.80
2022-12-08T00:52:12.955Z,17.90
2022-12-08T00:54:48.129Z,17.60
2022-12-08T00:57:23.364Z,17.90
2022-12-08T00:59:57.620Z,18.90
2022-12-08T01:02:33.584Z,18.90
2022-12-08T01:05:08.005Z,18.20
2022-12-08T01:07:40.961Z,18.00
2022-12-08T01:10:15.208Z,18.90
2022-12-08T01:12:49.238Z,18.70
2022-12-08T01:15:22.401Z,18.40
2022-12-08T01:17:55.921Z,18.90
2022-12-08T01:20:29.828Z,18.70
2022-12-08T01:23:03.005Z,18.20
2022-12-08T01:25:39.126Z,18.30
2022-12-08T01:28:12.351Z,18.50
2022-12-08T01:30:46.242Z,19.10
2022-12-08T01:33:19.271Z,17.80
2022-12-08T01:35:52.468Z,18.00
2022-12-08T01:38:26.305Z,18.20
2022-12-08T01:40:59.205Z,18.00
2022-12-08T01:43:58.990Z,18.20
2022-12-08T01:46:34.385Z,17.80
2022-12-08T01:49:12.759Z,18.10
2022-12-08T01:51:56.063Z,18.30
2022-12-08T01:54:34.446Z,18.40
2022-12-08T01:57:12.629Z,17.80
2022-12-08T01:59:53.126Z,18.40
2022-12-08T02:02:28.208Z,18.40
2022-12-08T02:05:01.217Z,19.10
2022-12-08T02:07:34.874Z,18.10
2022-12-08T02:10:15.791Z,19.40
2022-12-08T02:12:53.555Z,18.20
2022-12-08T02:15:39.469Z,18.50
2022-12-08T02:18:40.589Z,18.20
2022-12-08T02:21:19.789Z,18.00
2022-12-08T02:24:07.774Z,17.80
2022-12-08T02:27:25.355Z,17.90
2022-12-08T02:30:27.846Z,18.00
2022-12-08T02:33:50.347Z,18.30
2022-12-08T02:36:33.261Z,17.60
2022-12-08T02:39:22.711Z,19.20
2022-12-08T02:42:06.361Z,18.00
2022-12-08T02:44:47.194Z,17.50
2022-12-08T02:47:26.147Z,17.90
2022-12-08T02:50:00.946Z,18.10
2022-12-08T02:52:51.738Z,17.00
2022-12-08T02:55:34.477Z,17.60
2022-12-08T02:58:43.539Z,17.70
2022-12-08T03:01:46.000Z,18.80
2022-12-08T03:04:34.220Z,18.00
2022-12-08T03:07:18.154Z,18.10
2022-12-08T03:10:00.872Z,18.60
2022-12-08T03:12:41.302Z,18.70
2022-12-08T03:15:19.972Z,18.60
2022-12-08T03:18:00.977Z,18.70
2022-12-08T03:20:38.192Z,18.90
2022-12-08T03:23:16.844Z,18.60
2022-12-08T03:25:59.594Z,18.70
2022-12-08T03:28:33.314Z,18.60
2022-12-08T03:31:13.711Z,18.20
2022-12-08T03:33:53.907Z,19.10
2022-12-08T03:36:28.269Z,17.80
2022-12-08T03:39:01.500Z,18.90
2022-12-08T03:41:34.437Z,18.90
2022-12-08T03:44:07.933Z,19.00
2022-12-08T03:46:41.701Z,18.00
2022-12-08T03:49:14.926Z,18.60
2022-12-08T03:51:47.971Z,19.20
2022-12-08T03:54:20.702Z,18.80
2022-12-08T03:56:53.781Z,18.20
2022-12-08T03:59:26.740Z,18.70
2022-12-08T04:01:59.993Z,19.20
2022-12-08T04:04:33.192Z,19.20
2022-12-08T04:07:06.169Z,19.00
2022-12-08T04:09:41.906Z,19.60
2022-12-08T04:12:16.634Z,18.50
2022-12-08T04:14:50.320Z,19.80
2022-12-08T04:17:23.249Z,20.50
2022-12-08T04:19:57.840Z,20.00
2022-12-08T04:22:30.913Z,19.40
2022-12-08T04:25:04.860Z,19.60
2022-12-08T04:27:37.790Z,20.10
2022-12-08T04:30:13.947Z,19.70
2022-12-08T04:32:47.620Z,20.00
2022-12-08T04:35:20.945Z,20.20
2022-12-08T04:37:54.117Z,19.20
2022-12-08T04:40:27.720Z,20.10
2022-12-08T04:43:00.716Z,19.80
2022-12-08T04:45:41.209Z,20.30
2022-12-08T04:48:15.787Z,18.50
2022-12-08T04:50:49.321Z,19.50
2022-12-08T04:53:22.727Z,19.60
2022-12-08T04:55:57.517Z,19.80
2022-12-08T04:58:30.950Z,21.30
2022-12-08T05:01:03.980Z,22.30
2022-12-08T05:03:37.909Z,21.10
2022-12-08T05:06:14.184Z,19.90
2022-12-08T05:08:48.738Z,20.30
2022-12-08T05:11:21.675Z,21.00
2022-12-08T05:13:55.012Z,19.70
2022-12-08T05:16:28.091Z,20.00
2022-12-08T05:19:01.121Z,19.30
2022-12-08T05:21:34.283Z,21.40
2022-12-08T05:24:08.209Z,20.20
2022-12-08T05:26:41.371Z,20.30
2022-12-08T05:29:14.135Z,20.00
2022-12-08T05:31:47.422Z,20.20
2022-12-08T05:34:20.617Z,20.60
2022-12-08T05:36:53.450Z,20.40
2022-12-08T05:39:26.688Z,20.40
2022-12-08T05:42:00.607Z,20.40
2022-12-08T05:44:35.391Z,21.00
2022-12-08T05:47:08.625Z,21.40
2022-12-08T05:49:42.170Z,20.30
2022-12-08T05:52:17.173Z,19.60
2022-12-08T05:54:50.419Z,20.20
2022-12-08T05:57:23.242Z,20.40
2022-12-08T06:00:00.026Z,19.20
2022-12-08T06:02:33.383Z,21.40
2022-12-08T06:05:08.750Z,19.50
2022-12-08T06:07:41.965Z,21.00
2022-12-08T06:10:16.501Z,20.50
2022-12-08T06:12:49.596Z,19.30
2022-12-08T06:15:23.148Z,20.40
2022-12-08T06:17:56.096Z,20.60
2022-12-08T06:20:28.996Z,19.20
2022-12-08T06:23:03.746Z,19.90
2022-12-08T06:25:37.401Z,19.90
2022-12-08T06:28:11.080Z,20.70
2022-12-08T06:30:45.158Z,21.80
2022-12-08T06:33:18.392Z,21.80
2022-12-08T06:35:51.277Z,21.80
2022-12-08T06:38:24.665Z,19.90
2022-12-08T06:41:01.322Z,19.20
2022-12-08T06:43:34.546Z,20.90
2022-12-08T06:46:13.156Z,19.50
2022-12-08T06:48:46.269Z,19.80
2022-12-08T06:51:23.712Z,18.30
2022-12-08T06:53:58.992Z,20.60
2022-12-08T06:56:32.455Z,19.70
2022-12-08T06:59:06.408Z,19.90
2022-12-08T07:01:40.628Z,19.60
2022-12-08T07:04:15.713Z,20.00
2022-12-08T07:06:49.995Z,18.80
2022-12-08T07:09:23.402Z,20.00
2022-12-08T07:11:58.800Z,20.00
2022-12-08T07:14:32.502Z,19.20
2022-12-08T07:17:06.112Z,19.80
2022-12-08T07:19:40.531Z,18.70
2022-12-08T07:22:13.783Z,19.30
2022-12-08T07:24:48.046Z,19.90
2022-12-08T07:27:22.519Z,19.70
2022-12-08T07:29:56.498Z,19.50
2022-12-08T07:32:31.135Z,20.70
2022-12-08T07:35:11.755Z,20.20
2022-12-08T07:37:46.059Z,18.90
2022-12-08T07:40:20.366Z,19.70
2022-12-08T07:42:54.222Z,19.60
2022-12-08T07:45:31.468Z,21.10
2022-12-08T07:48:05.410Z,18.90
2022-12-08T07:50:41.877Z,20.00
2022-12-08T07:53:16.539Z,18.50
2022-12-08T07:55:50.232Z,20.40
2022-12-08T07:58:24.036Z,19.90
2022-12-08T08:00:57.520Z,19.90
2022-12-08T08:03:31.582Z,19.70
2022-12-08T08:06:09.083Z,20.20
2022-12-08T08:08:42.444Z,20.90
2022-12-08T08:11:20.929Z,20.20
2022-12-08T08:13:55.844Z,18.70
2022-12-08T08:16:34.941Z,18.70
2022-12-08T08:19:11.073Z,19.60
2022-12-08T08:21:46.474Z,19.80
2022-12-08T08:24:22.357Z,19.70
2022-12-08T08:26:56.108Z,20.00
2022-12-08T08:29:29.162Z,18.30
2022-12-08T08:32:03.683Z,19.00
2022-12-08T08:34:37.267Z,19.70
2022-12-08T08:37:11.497Z,18.90
2022-12-08T08:39:45.679Z,18.40
2022-12-08T08:42:18.597Z,19.90
2022-12-08T08:44:52.369Z,19.20
2022-12-08T08:47:26.222Z,18.80
2022-12-08T08:49:59.553Z,19.40
2022-12-08T08:52:33.133Z,19.10
2022-12-08T08:55:08.024Z,18.00
2022-12-08T08:57:41.011Z,17.60
2022-12-08T09:00:18.608Z,17.70
2022-12-08T09:02:53.619Z,18.70
2022-12-08T09:05:27.063Z,17.50
2022-12-08T09:08:00.964Z,19.00
2022-12-08T09:10:33.961Z,18.00
2022-12-08T09:13:08.435Z,17.10
2022-12-08T09:15:42.128Z,18.40
2022-12-08T09:18:14.974Z,17.90
2022-12-08T09:20:50.758Z,16.60
2022-12-08T09:23:24.920Z,18.70
2022-12-08T09:25:59.059Z,20.50
2022-12-08T09:28:32.301Z,18.00
2022-12-08T09:31:06.556Z,17.80
2022-12-08T09:33:41.369Z,19.80
2022-12-08T09:36:16.532Z,18.10
2022-12-08T09:38:51.382Z,18.30
2022-12-08T09:41:39.266Z,17.70
2022-12-08T09:44:45.672Z,17.90
2022-12-08T09:47:33.752Z,19.10
2022-12-08T09:50:18.545Z,18.90
2022-12-08T09:53:02.752Z,17.90
2022-12-08T09:55:46.513Z,19.30
2022-12-08T09:58:34.532Z,17.70
2022-12-08T10:01:09.979Z,17.80
2022-12-08T10:03:44.105Z,17.40
2022-12-08T10:06:29.554Z,17.60
2022-12-08T10:09:22.715Z,18.90
2022-12-08T10:12:07.065Z,18.40
2022-12-08T10:14:48.706Z,17.20
2022-12-08T10:17:29.229Z,18.20
2022-12-08T10:20:13.936Z,17.70
2022-12-08T10:22:52.195Z,17.70
2022-12-08T10:25:37.426Z,16.40
2022-12-08T10:28:13.453Z,17.20
2022-12-08T10:30:47.983Z,17.50
2022-12-08T10:33:25.699Z,17.40
2022-12-08T10:36:03.594Z,17.50
2022-12-08T10:38:40.025Z,17.00
2022-12-08T10:41:19.827Z,16.00
2022-12-08T10:44:02.926Z,18.10
2022-12-08T10:46:41.469Z,17.00
2022-12-08T10:49:32.636Z,15.70
2022-12-08T10:52:26.147Z,17.20
2022-12-08T10:55:03.738Z,16.80
2022-12-08T10:57:41.765Z,17.20
2022-12-08T11:00:29.661Z,17.50
2022-12-08T11:03:06.762Z,17.80
2022-12-08T11:05:42.873Z,16.60
2022-12-08T11:08:19.391Z,15.50
2022-12-08T11:10:55.139Z,17.60
2022-12-08T11:13:30.765Z,17.70
2022-12-08T11:16:07.583Z,18.80
2022-12-08T11:18:48.585Z,18.00
2022-12-08T11:21:33.325Z,20.00
2022-12-08T11:24:32.273Z,18.00
2022-12-08T11:27:10.229Z,18.60
2022-12-08T11:29:43.970Z,17.50
2022-12-08T11:32:19.153Z,18.50
2022-12-08T11:34:58.163Z,18.40
2022-12-08T11:37:39.623Z,18.60
2022-12-08T11:40:27.242Z,15.40
2022-12-08T11:43:14.233Z,17.70
2022-12-08T11:45:50.747Z,15.50
2022-12-08T11:48:35.087Z,17.60
2022-12-08T11:51:18.935Z,19.00
2022-12-08T11:54:08.343Z,20.20
2022-12-08T11:56:47.523Z,18.20
2022-12-08T11:59:31.468Z,19.90
2022-12-08T12:02:13.832Z,17.70
2022-12-08T12:04:54.222Z,17.60
2022-12-08T12:08:11.673Z,19.50
2022-12-08T12:11:07.926Z,20.60
2022-12-08T12:14:02.653Z,20.40
2022-12-08T12:17:05.406Z,22.20
2022-12-08T12:19:42.953Z,20.40
2022-12-08T12:22:25.058Z,21.90
2022-12-08T12:24:59.416Z,19.00
2022-12-08T12:27:46.125Z,21.50
2022-12-08T12:30:32.390Z,18.90
2022-12-08T12:33:13.962Z,21.80
2022-12-08T12:35:50.230Z,21.70
2022-12-08T12:38:51.827Z,20.80
2022-12-08T12:41:34.818Z,19.50
2022-12-08T12:44:44.820Z,21.80
2022-12-08T12:47:55.907Z,20.00
2022-12-08T12:50:50.834Z,20.00
2022-12-08T12:53:53.918Z,21.20
2022-12-08T12:56:56.886Z,21.60
2022-12-08T12:59:54.717Z,20.00
2022-12-08T13:02:40.292Z,19.70
2022-12-08T13:05:21.142Z,20.00
2022-12-08T13:08:02.153Z,21.00
2022-12-08T13:10:39.390Z,16.10
2022-12-08T13:13:22.223Z,23.00
2022-12-08T13:16:12.731Z,20.70
2022-12-08T13:18:59.431Z,22.40
2022-12-08T13:21:39.794Z,20.30
2022-12-08T13:24:32.586Z,21.70
2022-12-08T13:27:53.753Z,21.80
2022-12-08T13:30:49.344Z,20.60
2022-12-08T13:33:30.089Z,21.70
2022-12-08T13:36:33.543Z,21.30
2022-12-08T13:39:08.920Z,21.20
2022-12-08T13:41:50.160Z,20.10
2022-12-08T13:47:37.343Z,21.50
2022-12-08T13:51:10.583Z,20.30
2022-12-08T13:59:34.463Z,20.10
2022-12-08T14:02:24.280Z,22.20
2022-12-08T14:08:00.371Z,24.20
2022-12-08T14:10:35.440Z,23.40
2022-12-08T14:13:15.407Z,21.40
2022-12-08T14:15:49.979Z,24.40
2022-12-08T14:18:34.047Z,22.90
2022-12-08T14:21:23.102Z,20.80
2022-12-08T14:23:57.661Z,22.40
2022-12-08T14:26:36.889Z,22.00
2022-12-08T14:29:20.866Z,22.60
2022-12-08T14:31:56.154Z,22.40
2022-12-08T14:34:39.658Z,21.30
2022-12-08T14:37:18.138Z,22.10
2022-12-08T14:39:55.449Z,21.40
2022-12-08T14:42:30.922Z,22.60
2022-12-08T14:45:15.790Z,21.10
2022-12-08T14:47:48.775Z,23.10
2022-12-08T14:50:57.254Z,23.00
2022-12-08T14:53:38.266Z,22.20
2022-12-08T14:56:26.524Z,23.10
2022-12-08T14:59:17.563Z,22.50
2022-12-08T15:01:55.830Z,22.70
2022-12-08T15:04:33.335Z,21.10
2022-12-08T15:07:13.787Z,21.00
2022-12-08T15:09:50.476Z,22.60
2022-12-08T15:12:32.153Z,20.30
2022-12-08T15:15:19.379Z,22.90
2022-12-08T15:18:03.017Z,21.10
2022-12-08T15:20:48.648Z,22.60
2022-12-08T15:23:39.870Z,21.80
2022-12-08T15:26:22.937Z,21.50
2022-12-08T15:28:57.907Z,21.60
2022-12-08T15:31:32.261Z,23.20
2022-12-08T15:34:05.855Z,22.00
2022-12-08T15:36:42.143Z,21.80
2022-12-08T15:39:34.542Z,22.80
2022-12-08T15:42:16.697Z,23.70
2022-12-08T15:44:50.252Z,23.20
2022-12-08T15:47:26.545Z,22.60
2022-12-08T15:50:00.558Z,22.90
2022-12-08T15:52:35.800Z,23.20
2022-12-08T15:55:16.101Z,22.50
2022-12-08T16:00:52.847Z,22.60
2022-12-08T16:07:26.868Z,23.30
2022-12-08T16:09:36.478Z,23.60
2022-12-08T16:13:26.914Z,22.40
2022-12-08T16:15:51.572Z,23.40
2022-12-08T16:18:33.337Z,24.10
2022-12-08T16:21:22.698Z,23.20
2022-12-08T16:24:09.089Z,22.00
2022-12-08T16:27:58.210Z,23.80
2022-12-08T16:29:37.784Z,24.90
2022-12-08T16:32:11.576Z,21.90
2022-12-08T16:34:46.389Z,21.90
2022-12-08T16:37:23.504Z,25.10
2022-12-08T16:40:00.131Z,23.10
2022-12-08T16:42:43.653Z,24.10
2022-12-08T16:45:21.157Z,24.10
2022-12-08T16:47:57.660Z,22.30
2022-12-08T16:50:36.239Z,23.00
2022-12-08T16:53:12.929Z,23.20
2022-12-08T16:55:51.770Z,23.50
2022-12-08T16:58:25.644Z,22.10
2022-12-08T17:00:59.291Z,23.00
2022-12-08T17:03:34.732Z,22.50
2022-12-08T17:06:16.022Z,23.10
2022-12-08T17:08:49.978Z,21.60
2022-12-08T17:11:30.453Z,22.00
2022-12-08T17:14:03.820Z,22.60
2022-12-08T17:16:37.470Z,23.60
2022-12-08T17:19:14.328Z,21.30
2022-12-08T17:21:50.073Z,20.70
2022-12-08T17:24:26.314Z,21.40
2022-12-08T17:27:04.483Z,20.20
2022-12-08T17:29:40.142Z,19.90
2022-12-08T17:32:13.287Z,22.10
2022-12-08T17:34:46.873Z,19.70
2022-12-08T17:37:21.492Z,22.40
2022-12-08T17:39:55.392Z,23.60
2022-12-08T17:42:28.994Z,23.10
2022-12-08T17:45:02.636Z,22.10
2022-12-08T17:47:36.414Z,20.80
2022-12-08T17:50:12.230Z,23.30
2022-12-08T17:52:45.690Z,22.90
2022-12-08T17:55:19.442Z,23.00
2022-12-08T17:57:53.850Z,21.40
2022-12-08T18:00:27.757Z,22.80
2022-12-08T18:03:02.164Z,21.50
2022-12-08T18:05:36.052Z,21.30
2022-12-08T18:08:09.352Z,22.80
2022-12-08T18:10:42.976Z,23.50
2022-12-08T18:13:16.683Z,21.50
2022-12-08T18:15:52.556Z,22.70
2022-12-08T18:18:26.187Z,22.20
2022-12-08T18:21:00.553Z,22.50
2022-12-08T18:23:35.699Z,22.20
2022-12-08T18:26:13.912Z,22.00
2022-12-08T18:28:47.432Z,22.20
2022-12-08T18:31:23.471Z,21.50
2022-12-08T18:33:57.698Z,20.10
2022-12-08T18:36:31.777Z,21.70
2022-12-08T18:39:10.410Z,20.90
2022-12-08T18:41:43.906Z,21.50
2022-12-08T18:44:18.278Z,21.40
2022-12-08T18:46:53.110Z,21.20
2022-12-08T18:49:27.096Z,20.40
2022-12-08T18:52:00.668Z,21.10
2022-12-08T18:54:58.147Z,23.00
2022-12-08T18:57:29.538Z,22.50
2022-12-08T19:00:04.305Z,21.00
2022-12-08T19:02:38.583Z,21.70
2022-12-08T19:05:14.603Z,21.20
2022-12-08T19:07:48.111Z,20.60
2022-12-08T19:10:23.889Z,20.40
2022-12-08T19:13:00.702Z,23.80
2022-12-08T19:15:33.891Z,23.00
2022-12-08T19:18:07.145Z,22.00
2022-12-08T19:20:43.810Z,22.40
2022-12-08T19:23:18.264Z,23.10
2022-12-08T19:25:51.712Z,21.40
2022-12-08T19:28:25.384Z,22.50
2022-12-08T19:30:59.657Z,21.40
2022-12-08T19:33:33.305Z,21.80
2022-12-08T19:36:15.628Z,22.10
2022-12-08T19:39:06.881Z,24.30
2022-12-08T19:41:59.242Z,23.80
2022-12-08T19:44:52.008Z,24.50
2022-12-08T19:47:27.806Z,23.60
2022-12-08T19:50:15.296Z,22.30
2022-12-08T19:52:49.136Z,23.50
2022-12-08T19:55:23.884Z,24.50
2022-12-08T19:57:58.635Z,22.90
2022-12-08T20:00:32.651Z,24.10
2022-12-08T20:03:07.773Z,24.30
2022-12-08T20:05:43.879Z,23.40
2022-12-08T20:08:17.423Z,22.30
2022-12-08T20:10:51.140Z,22.50
2022-12-08T20:13:47.324Z,23.20
2022-12-08T20:16:21.127Z,25.30
2022-12-08T20:18:55.423Z,23.60
2022-12-08T20:21:29.300Z,25.60
2022-12-08T20:24:05.082Z,25.60
2022-12-08T20:26:39.577Z,22.90
